createdAt,value
2019-03-24T00:01:07.649Z,1.90
2019-03-24T00:03:38.022Z,1.90
2019-03-24T00:06:08.442Z,1.90
2019-03-24T00:08:38.827Z,1.90
2019-03-24T00:11:10.703Z,1.80
2019-03-24T00:13:41.129Z,1.80
2019-03-24T00:16:11.536Z,1.80
2019-03-24T00:18:41.913Z,1.70
2019-03-24T00:21:12.343Z,1.60
2019-03-24T00:23:42.763Z,1.60
2019-03-24T00:26:13.776Z,1.60
2019-03-24T00:28:44.128Z,1.60
2019-03-24T00:31:14.551Z,1.60
2019-03-24T00:33:44.928Z,1.60
2019-03-24T00:36:15.456Z,1.60
2019-03-24T00:38:45.861Z,1.50
2019-03-24T00:41:16.374Z,1.50
2019-03-24T00:43:46.739Z,1.60
2019-03-24T00:46:17.182Z,1.50
2019-03-24T00:48:47.563Z,1.60
2019-03-24T00:51:18.021Z,1.50
2019-03-24T00:53:48.398Z,1.50
2019-03-24T00:56:18.847Z,1.50
2019-03-24T00:58:49.295Z,1.50
2019-03-24T01:01:19.872Z,1.40
2019-03-24T01:03:50.226Z,1.40
2019-03-24T01:06:20.614Z,1.40
2019-03-24T01:08:51.015Z,1.50
2019-03-24T01:11:21.420Z,1.50
2019-03-24T01:13:51.779Z,1.40
2019-03-24T01:16:22.235Z,1.50
2019-03-24T01:18:52.594Z,1.40
2019-03-24T01:21:23.043Z,1.40
2019-03-24T01:23:53.417Z,1.40
2019-03-24T01:26:23.894Z,1.40
2019-03-24T01:28:54.299Z,1.40
2019-03-24T01:31:24.728Z,1.30
2019-03-24T01:33:55.154Z,1.30
2019-03-24T01:36:25.617Z,1.20
2019-03-24T01:38:56.245Z,1.20
2019-03-24T01:41:26.664Z,1.20
2019-03-24T01:43:57.139Z,1.40
2019-03-24T01:46:27.529Z,1.40
2019-03-24T01:48:58.011Z,1.40
2019-03-24T01:51:28.465Z,1.50
2019-03-24T01:53:58.926Z,1.50
2019-03-24T01:56:29.296Z,1.50
2019-03-24T01:58:59.695Z,1.50
2019-03-24T02:01:30.112Z,1.50
2019-03-24T02:04:00.521Z,1.60
2019-03-24T02:06:30.906Z,1.60
2019-03-24T02:09:01.344Z,1.60
2019-03-24T02:11:31.730Z,1.60
2019-03-24T02:14:02.155Z,1.60
2019-03-24T02:16:32.479Z,1.60
2019-03-24T02:19:02.932Z,1.60
2019-03-24T02:21:33.305Z,1.70
2019-03-24T02:24:04.164Z,1.70
2019-03-24T02:26:34.538Z,1.70
2019-03-24T02:29:04.944Z,1.70
2019-03-24T02:31:35.321Z,1.70
2019-03-24T02:34:05.614Z,1.70
2019-03-24T02:36:36.186Z,1.60
2019-03-24T02:39:08.076Z,1.70
2019-03-24T02:41:38.508Z,1.60
2019-03-24T02:44:08.868Z,1.60
2019-03-24T02:46:39.248Z,1.60
2019-03-24T02:49:09.719Z,1.60
2019-03-24T02:51:40.152Z,1.60
2019-03-24T02:54:10.576Z,1.70
2019-03-24T02:56:40.971Z,1.70
2019-03-24T02:59:11.382Z,1.70
2019-03-24T03:01:41.797Z,1.70
2019-03-24T03:04:12.185Z,1.70
2019-03-24T03:06:42.556Z,1.70
2019-03-24T03:09:12.993Z,1.60
2019-03-24T03:11:43.348Z,1.60
2019-03-24T03:14:13.746Z,1.60
2019-03-24T03:16:44.205Z,1.60
2019-03-24T03:19:14.582Z,1.70
2019-03-24T03:21:45.019Z,1.70
2019-03-24T03:24:15.437Z,1.70
2019-03-24T03:26:45.867Z,1.70
2019-03-24T03:29:16.269Z,1.70
2019-03-24T03:31:46.663Z,1.70
2019-03-24T03:34:18.613Z,1.70
2019-03-24T03:36:49.181Z,1.80
2019-03-24T03:39:19.577Z,1.70
2019-03-24T03:41:49.993Z,1.80
2019-03-24T03:44:20.420Z,1.80
2019-03-24T03:46:52.947Z,1.80
2019-03-24T03:49:22.902Z,1.90
2019-03-24T03:51:53.329Z,1.90
2019-03-24T03:54:23.828Z,1.90
2019-03-24T03:56:54.230Z,1.90
2019-03-24T03:59:24.643Z,2.00
2019-03-24T04:01:55.044Z,2.00
2019-03-24T04:04:25.437Z,2.00
2019-03-24T04:06:55.830Z,2.00
2019-03-24T04:09:26.215Z,2.00
2019-03-24T04:11:56.588Z,2.10
2019-03-24T04:14:27.069Z,2.00
2019-03-24T04:17:06.814Z,2.10
2019-03-24T04:19:30.931Z,2.10
2019-03-24T04:22:01.323Z,2.10
2019-03-24T04:24:31.754Z,2.10
2019-03-24T04:27:02.149Z,2.20
2019-03-24T04:29:32.576Z,2.30
2019-03-24T04:32:03.047Z,2.30
2019-03-24T04:34:33.388Z,2.40
2019-03-24T04:37:03.906Z,2.40
2019-03-24T04:39:34.264Z,2.50
2019-03-24T04:42:04.647Z,2.60
2019-03-24T04:44:35.103Z,2.70
2019-03-24T04:47:05.499Z,2.70
2019-03-24T04:49:36.032Z,2.70
2019-03-24T04:52:06.485Z,2.70
2019-03-24T04:54:36.912Z,2.90
2019-03-24T04:57:07.316Z,2.80
2019-03-24T04:59:37.684Z,2.90
2019-03-24T05:02:08.127Z,3.20
2019-03-24T05:04:38.545Z,3.30
2019-03-24T05:07:10.792Z,3.20
2019-03-24T05:09:42.850Z,3.10
2019-03-24T05:12:13.350Z,3.00
2019-03-24T05:14:43.718Z,3.20
2019-03-24T05:17:14.157Z,3.30
2019-03-24T05:19:44.609Z,3.20
2019-03-24T05:22:15.090Z,3.30
2019-03-24T05:24:45.420Z,3.50
2019-03-24T05:27:15.915Z,3.60
2019-03-24T05:29:46.321Z,4.00
2019-03-24T05:32:16.700Z,4.00
2019-03-24T05:34:47.095Z,3.70
2019-03-24T05:37:17.591Z,3.80
2019-03-24T05:39:48.016Z,4.00
2019-03-24T05:42:22.676Z,4.50
2019-03-24T05:44:53.188Z,4.70
2019-03-24T05:47:23.698Z,4.60
2019-03-24T05:49:54.018Z,4.70
2019-03-24T05:52:24.496Z,4.70
2019-03-24T05:54:54.819Z,4.70
2019-03-24T05:57:25.256Z,4.60
2019-03-24T05:59:55.680Z,4.70
2019-03-24T06:02:33.731Z,4.70
2019-03-24T06:05:05.342Z,4.80
2019-03-24T06:07:37.260Z,4.80
2019-03-24T06:10:08.246Z,4.90
2019-03-24T06:12:40.522Z,4.90
2019-03-24T06:15:11.076Z,5.10
2019-03-24T06:17:47.870Z,4.90
2019-03-24T06:20:13.744Z,5.20
2019-03-24T06:22:44.195Z,5.30
2019-03-24T06:25:16.054Z,5.60
2019-03-24T06:27:46.511Z,5.60
2019-03-24T06:30:20.151Z,5.60
2019-03-24T06:32:50.692Z,5.80
2019-03-24T06:35:21.312Z,5.90
2019-03-24T06:37:53.844Z,5.60
2019-03-24T06:40:26.937Z,5.60
2019-03-24T06:42:57.379Z,5.50
2019-03-24T06:45:28.885Z,5.50
2019-03-24T06:47:59.615Z,5.50
2019-03-24T06:50:30.017Z,5.90
2019-03-24T06:53:00.445Z,5.90
2019-03-24T06:55:30.908Z,6.40
2019-03-24T06:58:03.695Z,6.60
2019-03-24T07:00:40.962Z,6.60
2019-03-24T07:03:12.850Z,6.50
2019-03-24T07:05:46.024Z,6.80
2019-03-24T07:08:16.483Z,6.80
2019-03-24T07:10:46.979Z,6.10
2019-03-24T07:13:17.403Z,6.20
2019-03-24T07:15:49.297Z,6.40
2019-03-24T07:18:19.709Z,6.20
2019-03-24T07:20:50.167Z,6.40
2019-03-24T07:23:20.687Z,6.70
2019-03-24T07:25:51.936Z,7.10
2019-03-24T07:28:22.341Z,7.30
2019-03-24T07:30:52.853Z,7.30
2019-03-24T07:33:23.303Z,7.40
2019-03-24T07:35:53.789Z,7.50
2019-03-24T07:38:24.226Z,7.40
2019-03-24T07:40:54.665Z,7.00
2019-03-24T07:43:25.160Z,7.10
2019-03-24T07:45:55.528Z,7.40
2019-03-24T07:48:25.988Z,7.40
2019-03-24T07:50:56.356Z,7.10
2019-03-24T07:53:26.807Z,7.00
2019-03-24T07:55:57.293Z,6.80
2019-03-24T07:58:27.741Z,6.60
2019-03-24T08:01:01.635Z,6.80
2019-03-24T08:03:32.141Z,6.70
2019-03-24T08:06:02.718Z,7.20
2019-03-24T08:08:33.123Z,6.60
2019-03-24T08:11:03.814Z,6.30
2019-03-24T08:13:34.248Z,6.20
2019-03-24T08:16:04.671Z,6.20
2019-03-24T08:18:36.798Z,6.30
2019-03-24T08:21:08.988Z,6.60
2019-03-24T08:23:39.676Z,6.80
2019-03-24T08:26:10.079Z,6.80
2019-03-24T08:28:40.495Z,7.00
2019-03-24T08:31:10.913Z,7.20
2019-03-24T08:33:41.321Z,7.40
2019-03-24T08:36:11.741Z,7.10
2019-03-24T08:38:42.210Z,6.80
2019-03-24T08:41:12.819Z,6.60
2019-03-24T08:43:43.339Z,6.50
2019-03-24T08:46:13.773Z,6.50
2019-03-24T08:48:44.425Z,6.90
2019-03-24T08:51:16.259Z,7.50
2019-03-24T08:53:46.729Z,8.00
2019-03-24T08:56:17.100Z,8.20
2019-03-24T08:58:47.651Z,8.30
2019-03-24T09:01:18.027Z,8.30
2019-03-24T09:03:48.486Z,8.50
2019-03-24T09:06:19.717Z,8.50
2019-03-24T09:08:50.246Z,8.70
2019-03-24T09:11:30.621Z,8.90
2019-03-24T09:13:52.727Z,9.10
2019-03-24T09:16:23.112Z,8.80
2019-03-24T09:18:53.613Z,8.60
2019-03-24T09:21:23.994Z,9.00
2019-03-24T09:23:54.530Z,8.90
2019-03-24T09:26:25.008Z,9.10
2019-03-24T09:28:55.466Z,9.40
2019-03-24T09:31:25.951Z,9.60
2019-03-24T09:33:56.370Z,9.70
2019-03-24T09:36:26.963Z,9.70
2019-03-24T09:38:57.565Z,9.40
2019-03-24T09:41:27.917Z,9.80
2019-03-24T09:43:58.364Z,9.60
2019-03-24T09:46:28.793Z,9.50
2019-03-24T09:49:03.359Z,9.60
2019-03-24T09:51:31.162Z,9.90
2019-03-24T09:54:01.576Z,9.90
2019-03-24T09:56:32.129Z,9.90
2019-03-24T09:59:02.690Z,9.60
2019-03-24T10:01:36.137Z,9.50
2019-03-24T10:04:06.562Z,9.30
2019-03-24T10:06:37.034Z,9.20
2019-03-24T10:09:07.618Z,9.40
2019-03-24T10:11:38.074Z,9.80
2019-03-24T10:14:08.526Z,9.70
2019-03-24T10:16:38.997Z,9.40
2019-03-24T10:19:13.921Z,9.00
2019-03-24T10:21:41.606Z,8.40
2019-03-24T10:24:12.074Z,8.10
2019-03-24T10:26:42.533Z,8.50
2019-03-24T10:29:13.108Z,8.70
2019-03-24T10:31:43.550Z,9.10
2019-03-24T10:34:13.983Z,9.20
2019-03-24T10:36:44.371Z,9.30
2019-03-24T10:39:15.009Z,9.10
2019-03-24T10:41:45.439Z,9.20
2019-03-24T10:44:15.884Z,9.70
2019-03-24T10:46:46.296Z,9.70
2019-03-24T10:49:24.404Z,9.60
2019-03-24T10:51:48.753Z,8.90
2019-03-24T10:54:19.232Z,9.20
2019-03-24T10:56:49.680Z,9.90
2019-03-24T10:59:20.105Z,9.70
2019-03-24T11:01:50.502Z,10.00
2019-03-24T11:04:20.901Z,10.20
2019-03-24T11:06:51.350Z,9.90
2019-03-24T11:09:21.770Z,9.90
2019-03-24T11:11:52.349Z,9.80
2019-03-24T11:14:22.750Z,9.80
2019-03-24T11:16:53.312Z,9.80
2019-03-24T11:19:23.775Z,10.00
2019-03-24T11:21:54.303Z,10.30
2019-03-24T11:24:24.676Z,9.90
2019-03-24T11:26:55.152Z,9.90
2019-03-24T11:29:25.586Z,10.00
2019-03-24T11:31:56.007Z,9.90
2019-03-24T11:34:26.495Z,9.70
2019-03-24T11:36:56.872Z,9.90
2019-03-24T11:39:30.268Z,9.80
2019-03-24T11:42:00.658Z,9.40
2019-03-24T11:44:31.195Z,9.70
2019-03-24T11:47:01.642Z,9.60
2019-03-24T11:49:32.100Z,9.70
2019-03-24T11:52:02.660Z,9.90
2019-03-24T11:54:33.122Z,9.80
2019-03-24T11:57:04.033Z,9.70
2019-03-24T11:59:34.516Z,9.80
2019-03-24T12:02:05.017Z,9.60
2019-03-24T12:04:35.592Z,9.60
2019-03-24T12:07:05.991Z,9.50
2019-03-24T12:09:36.536Z,9.50
2019-03-24T12:12:09.523Z,9.50
2019-03-24T12:14:43.068Z,9.60
2019-03-24T12:17:16.345Z,9.40
2019-03-24T12:19:56.719Z,9.50
2019-03-24T12:22:21.705Z,9.40
2019-03-24T12:24:52.311Z,9.40
2019-03-24T12:27:22.800Z,9.30
2019-03-24T12:29:55.937Z,9.10
2019-03-24T12:32:26.400Z,9.30
2019-03-24T12:34:56.809Z,9.40
2019-03-24T12:37:27.247Z,9.30
2019-03-24T12:39:58.172Z,9.20
2019-03-24T12:42:31.175Z,9.20
2019-03-24T12:45:01.669Z,9.40
2019-03-24T12:47:32.078Z,9.40
2019-03-24T12:50:08.732Z,9.50
2019-03-24T12:52:39.389Z,9.70
2019-03-24T12:55:10.410Z,9.60
2019-03-24T12:57:40.777Z,9.60
2019-03-24T13:00:13.005Z,9.80
2019-03-24T13:02:43.457Z,10.00
2019-03-24T13:05:14.270Z,9.80
2019-03-24T13:07:44.687Z,9.70
2019-03-24T13:10:15.115Z,9.70
2019-03-24T13:12:45.626Z,9.50
2019-03-24T13:15:16.151Z,9.60
2019-03-24T13:17:47.624Z,9.60
2019-03-24T13:20:27.889Z,9.60
2019-03-24T13:22:50.102Z,9.50
2019-03-24T13:25:22.047Z,9.40
2019-03-24T13:27:52.596Z,9.10
2019-03-24T13:30:23.246Z,9.00
2019-03-24T13:32:53.777Z,8.90
2019-03-24T13:35:24.333Z,9.00
2019-03-24T13:43:57.363Z,9.10
2019-03-24T13:46:27.839Z,9.10
2019-03-24T13:49:00.032Z,9.20
2019-03-24T13:51:30.651Z,9.20
2019-03-24T13:54:07.363Z,8.90
2019-03-24T13:56:40.809Z,8.80
2019-03-24T13:59:11.267Z,8.80
2019-03-24T14:01:41.866Z,8.80
2019-03-24T14:04:12.285Z,8.80
2019-03-24T14:06:42.774Z,8.90
2019-03-24T14:09:13.862Z,8.90
2019-03-24T14:11:44.364Z,8.90
2019-03-24T14:14:14.738Z,8.80
2019-03-24T14:16:46.633Z,8.80
2019-03-24T14:19:17.479Z,8.90
2019-03-24T14:21:47.871Z,8.80
2019-03-24T14:24:18.618Z,8.80
2019-03-24T14:26:49.129Z,8.70
2019-03-24T14:29:19.677Z,8.70
2019-03-24T14:31:50.134Z,8.60
2019-03-24T14:34:24.124Z,8.60
2019-03-24T14:36:54.703Z,8.50
2019-03-24T14:39:25.203Z,8.50
2019-03-24T14:41:55.711Z,8.40
2019-03-24T14:44:26.316Z,8.40
2019-03-24T14:46:56.915Z,8.40
2019-03-24T14:49:27.434Z,8.40
2019-03-24T14:51:57.871Z,8.30
2019-03-24T14:54:28.423Z,8.30
2019-03-24T14:56:58.887Z,8.30
2019-03-24T14:59:29.415Z,8.20
2019-03-24T15:01:59.801Z,8.20
2019-03-24T15:04:30.308Z,8.20
2019-03-24T15:07:00.695Z,8.20
2019-03-24T15:09:31.180Z,8.20
2019-03-24T15:12:01.576Z,8.20
2019-03-24T15:14:32.031Z,8.20
2019-03-24T15:17:02.497Z,8.10
2019-03-24T15:19:32.885Z,8.20
2019-03-24T15:22:03.777Z,8.10
2019-03-24T15:24:34.245Z,8.00
2019-03-24T15:27:04.727Z,8.00
2019-03-24T15:29:35.136Z,8.00
2019-03-24T15:32:05.591Z,8.00
2019-03-24T15:34:35.986Z,8.00
2019-03-24T15:37:06.525Z,8.10
2019-03-24T15:39:37.013Z,8.10
2019-03-24T15:42:07.562Z,8.10
2019-03-24T15:44:38.067Z,8.00
2019-03-24T15:47:08.618Z,8.00
2019-03-24T15:49:39.283Z,8.00
2019-03-24T15:52:09.789Z,7.90
2019-03-24T15:54:41.499Z,7.80
2019-03-24T15:57:13.452Z,7.90
2019-03-24T15:59:44.190Z,7.90
2019-03-24T16:02:17.667Z,7.90
2019-03-24T16:04:48.165Z,7.90
2019-03-24T16:07:18.597Z,7.90
2019-03-24T16:09:49.287Z,7.90
2019-03-24T16:12:20.548Z,7.90
2019-03-24T16:14:57.936Z,7.80
2019-03-24T16:17:28.349Z,7.70
2019-03-24T16:20:01.588Z,7.60
2019-03-24T16:22:35.176Z,7.50
2019-03-24T16:25:11.556Z,7.50
2019-03-24T16:27:41.970Z,7.50
2019-03-24T16:30:12.939Z,7.50
2019-03-24T16:32:43.351Z,7.50
2019-03-24T16:35:13.781Z,7.50
2019-03-24T16:37:47.144Z,7.50
2019-03-24T16:40:17.648Z,7.50
2019-03-24T16:42:50.168Z,7.50
2019-03-24T16:45:23.310Z,7.60
2019-03-24T16:47:57.831Z,7.50
2019-03-24T16:50:28.680Z,7.50
2019-03-24T16:52:59.320Z,7.60
2019-03-24T16:55:29.753Z,7.50
2019-03-24T16:58:00.673Z,7.50
2019-03-24T17:00:31.204Z,7.40
2019-03-24T17:03:01.807Z,7.40
2019-03-24T17:05:32.376Z,7.30
2019-03-24T17:08:04.359Z,7.20
2019-03-24T17:10:34.787Z,7.20
2019-03-24T17:13:05.314Z,7.10
2019-03-24T17:15:37.640Z,7.10
2019-03-24T17:18:08.168Z,7.10
2019-03-24T17:20:38.631Z,7.00
2019-03-24T17:23:11.574Z,7.00
2019-03-24T17:25:42.062Z,7.00
2019-03-24T17:28:12.686Z,7.00
2019-03-24T17:30:44.749Z,7.00
2019-03-24T17:33:15.264Z,6.90
2019-03-24T17:35:45.744Z,6.90
2019-03-24T17:38:16.180Z,6.80
2019-03-24T17:40:46.652Z,6.80
2019-03-24T17:43:17.158Z,6.80
2019-03-24T17:45:47.810Z,6.80
2019-03-24T17:48:18.214Z,6.70
2019-03-24T17:50:51.853Z,6.60
2019-03-24T17:53:24.539Z,6.60
2019-03-24T17:55:54.929Z,6.50
2019-03-24T17:58:25.409Z,6.60
2019-03-24T18:00:57.421Z,6.50
2019-03-24T18:03:30.993Z,6.40
2019-03-24T18:06:04.449Z,6.40
2019-03-24T18:08:34.963Z,6.30
2019-03-24T18:11:09.386Z,6.30
2019-03-24T18:13:39.889Z,6.40
2019-03-24T18:16:10.344Z,6.40
2019-03-24T18:18:47.855Z,6.40
2019-03-24T18:21:20.280Z,6.40
2019-03-24T18:23:52.308Z,6.40
2019-03-24T18:26:25.981Z,6.40
2019-03-24T18:28:57.026Z,6.40
2019-03-24T18:31:27.475Z,6.40
2019-03-24T18:33:57.920Z,6.40
2019-03-24T18:36:31.438Z,6.40
2019-03-24T18:39:02.963Z,6.40
2019-03-24T18:41:37.955Z,6.30
2019-03-24T18:44:08.771Z,6.30
2019-03-24T18:46:40.819Z,6.40
2019-03-24T18:49:11.230Z,6.40
2019-03-24T18:51:44.371Z,6.30
2019-03-24T18:54:14.945Z,6.40
2019-03-24T18:56:49.494Z,6.30
2019-03-24T18:59:20.050Z,6.30
2019-03-24T19:01:50.598Z,6.20
2019-03-24T19:04:21.055Z,6.10
2019-03-24T19:06:51.591Z,6.20
2019-03-24T19:09:21.995Z,6.20
2019-03-24T19:11:53.423Z,6.10
2019-03-24T19:14:23.859Z,6.00
2019-03-24T19:16:54.451Z,5.90
2019-03-24T19:19:24.847Z,6.00
2019-03-24T19:21:55.295Z,6.10
2019-03-24T19:24:25.974Z,6.20
2019-03-24T19:26:56.432Z,6.30
2019-03-24T19:29:26.902Z,6.40
2019-03-24T19:31:58.236Z,6.40
2019-03-24T19:34:28.673Z,6.40
2019-03-24T19:36:59.221Z,6.90
2019-03-24T19:39:30.728Z,7.00
2019-03-24T19:42:04.732Z,6.80
2019-03-24T19:44:38.421Z,6.50
2019-03-24T19:47:09.993Z,6.40
2019-03-24T19:49:40.418Z,6.40
2019-03-24T19:52:10.906Z,6.50
2019-03-24T19:54:41.383Z,6.40
2019-03-24T19:57:11.833Z,6.40
2019-03-24T19:59:42.219Z,6.50
2019-03-24T20:02:12.751Z,6.50
2019-03-24T20:04:43.235Z,6.60
2019-03-24T20:07:13.740Z,6.60
2019-03-24T20:09:44.169Z,6.60
2019-03-24T20:12:15.925Z,6.60
2019-03-24T20:14:47.867Z,6.60
2019-03-24T20:17:18.371Z,6.60
2019-03-24T20:19:48.759Z,6.50
2019-03-24T20:22:19.158Z,6.50
2019-03-24T20:24:51.244Z,6.50
2019-03-24T20:27:21.682Z,6.50
2019-03-24T20:29:52.146Z,6.50
2019-03-24T20:32:22.556Z,6.50
2019-03-24T20:34:52.997Z,6.50
2019-03-24T20:37:23.462Z,6.40
2019-03-24T20:39:55.528Z,6.40
2019-03-24T20:42:25.898Z,6.40
2019-03-24T20:44:56.275Z,6.30
2019-03-24T20:47:30.031Z,6.30
2019-03-24T20:50:00.404Z,6.30
2019-03-24T20:52:30.913Z,6.30
2019-03-24T20:55:01.335Z,6.30
2019-03-24T20:57:31.920Z,6.30
2019-03-24T21:00:03.028Z,6.30
2019-03-24T21:02:33.481Z,6.20
2019-03-24T21:05:05.311Z,6.20
2019-03-24T21:07:35.708Z,6.10
2019-03-24T21:10:07.823Z,6.00
2019-03-24T21:12:38.232Z,6.00
2019-03-24T21:15:11.273Z,5.90
2019-03-24T21:17:41.306Z,5.90
2019-03-24T21:20:11.836Z,5.80
2019-03-24T21:22:42.417Z,5.70
2019-03-24T21:25:12.968Z,5.60
2019-03-24T21:27:43.458Z,5.50
2019-03-24T21:30:15.439Z,5.40
2019-03-24T21:32:45.879Z,5.40
2019-03-24T21:35:16.337Z,5.30
2019-03-24T21:37:46.715Z,5.20
2019-03-24T21:40:18.651Z,5.10
2019-03-24T21:42:49.226Z,5.10
2019-03-24T21:45:22.900Z,5.20
2019-03-24T21:47:56.563Z,5.10
2019-03-24T21:50:27.023Z,5.00
2019-03-24T21:52:57.445Z,4.90
2019-03-24T21:55:28.052Z,4.80
2019-03-24T21:57:58.541Z,4.90
2019-03-24T22:00:32.065Z,4.90
2019-03-24T22:03:02.443Z,4.90
2019-03-24T22:05:34.479Z,4.90
2019-03-24T22:08:05.025Z,5.00
2019-03-24T22:10:35.524Z,5.10
2019-03-24T22:13:06.059Z,5.50
2019-03-24T22:15:36.473Z,6.20
2019-03-24T22:18:07.114Z,6.60
2019-03-24T22:20:48.264Z,6.70
2019-03-24T22:23:11.150Z,6.80
2019-03-24T22:25:42.973Z,6.50
2019-03-24T22:28:13.353Z,6.60
2019-03-24T22:30:43.824Z,6.60
2019-03-24T22:33:14.153Z,6.20
2019-03-24T22:35:47.056Z,5.80
2019-03-24T22:38:16.565Z,5.50
2019-03-24T22:40:46.971Z,5.20
2019-03-24T22:43:17.351Z,4.90
2019-03-24T22:45:47.738Z,4.80
2019-03-24T22:48:18.266Z,4.80
2019-03-24T22:50:48.721Z,4.70
2019-03-24T22:53:19.201Z,4.80
2019-03-24T22:55:51.252Z,4.90
2019-03-24T22:58:21.647Z,4.80
2019-03-24T23:00:54.732Z,4.80
2019-03-24T23:03:25.621Z,4.70
2019-03-24T23:05:56.324Z,4.70
2019-03-24T23:08:26.957Z,4.70
2019-03-24T23:10:57.308Z,4.70
2019-03-24T23:13:27.756Z,4.70
2019-03-24T23:15:58.125Z,4.50
2019-03-24T23:18:28.593Z,4.50
2019-03-24T23:20:59.082Z,4.40
2019-03-24T23:23:29.490Z,4.50
2019-03-24T23:25:59.886Z,4.60
2019-03-24T23:28:30.324Z,4.50
2019-03-24T23:31:00.802Z,4.50
2019-03-24T23:33:31.244Z,4.60
2019-03-24T23:36:01.640Z,4.50
2019-03-24T23:38:32.040Z,4.30
2019-03-24T23:41:02.553Z,4.20
2019-03-24T23:43:32.999Z,4.20
2019-03-24T23:46:03.426Z,4.10
2019-03-24T23:48:33.954Z,4.00
2019-03-24T23:51:04.369Z,3.90
2019-03-24T23:53:34.790Z,3.70
2019-03-24T23:56:05.316Z,3.70
2019-03-24T23:58:40.653Z,3.70
